createdAt,value
2024-01-26T00:01:55.107Z,9.20
2024-01-26T00:04:24.249Z,8.20
2024-01-26T00:06:52.965Z,8.60
2024-01-26T00:09:22.560Z,14.90
2024-01-26T00:14:19.986Z,9.50
2024-01-26T00:16:49.030Z,5.40
2024-01-26T00:19:17.558Z,13.20
2024-01-26T00:21:46.084Z,7.40
2024-01-26T00:24:14.617Z,6.40
2024-01-26T00:26:42.892Z,13.50
2024-01-26T00:29:11.190Z,7.20
2024-01-26T00:31:39.453Z,6.00
2024-01-26T00:34:07.887Z,7.50
2024-01-26T00:36:37.091Z,5.80
2024-01-26T00:39:08.018Z,5.30
2024-01-26T00:41:36.148Z,5.30
2024-01-26T00:44:05.153Z,6.30
2024-01-26T00:46:33.314Z,8.10
2024-01-26T00:49:01.748Z,9.30
2024-01-26T00:51:29.966Z,4.30
2024-01-26T00:53:58.746Z,6.10
2024-01-26T00:56:26.857Z,5.70
2024-01-26T00:58:55.277Z,6.30
2024-01-26T01:01:25.656Z,5.70
2024-01-26T01:03:53.909Z,7.90
2024-01-26T01:06:22.792Z,6.70
2024-01-26T01:08:51.135Z,6.90
2024-01-26T01:11:19.549Z,5.50
2024-01-26T01:13:47.599Z,9.90
2024-01-26T01:16:16.460Z,11.30
2024-01-26T01:18:44.629Z,5.70
2024-01-26T01:21:13.139Z,7.00
2024-01-26T01:23:42.305Z,5.10
2024-01-26T01:28:39.029Z,6.70
2024-01-26T01:31:07.670Z,4.30
2024-01-26T01:33:36.266Z,3.60
2024-01-26T01:36:05.304Z,5.40
2024-01-26T01:38:33.558Z,5.80
2024-01-26T01:41:02.285Z,5.70
2024-01-26T01:43:30.703Z,7.40
2024-01-26T01:45:59.270Z,5.20
2024-01-26T01:48:27.831Z,7.60
2024-01-26T01:50:56.234Z,7.70
2024-01-26T01:53:25.789Z,6.00
2024-01-26T01:55:54.454Z,11.50
2024-01-26T01:58:24.041Z,4.60
2024-01-26T02:00:52.470Z,5.40
2024-01-26T02:03:21.981Z,7.80
2024-01-26T02:05:50.864Z,7.80
2024-01-26T02:08:19.100Z,8.60
2024-01-26T02:10:47.205Z,7.80
2024-01-26T02:13:15.514Z,9.30
2024-01-26T02:15:43.931Z,8.20
2024-01-26T02:18:12.324Z,6.50
2024-01-26T02:20:47.670Z,11.70
2024-01-26T02:23:25.149Z,6.50
2024-01-26T02:25:53.603Z,5.00
2024-01-26T02:28:21.933Z,4.80
2024-01-26T02:30:50.538Z,9.30
2024-01-26T02:33:19.170Z,8.00
2024-01-26T02:35:47.511Z,6.40
2024-01-26T02:38:15.642Z,8.30
2024-01-26T02:40:44.182Z,6.30
2024-01-26T02:43:12.349Z,5.90
2024-01-26T02:45:44.183Z,9.70
2024-01-26T02:48:12.376Z,4.50
2024-01-26T02:50:41.221Z,13.50
2024-01-26T02:53:09.514Z,3.90
2024-01-26T02:55:38.023Z,8.10
2024-01-26T02:58:06.551Z,4.50
2024-01-26T03:00:34.834Z,4.80
2024-01-26T03:03:04.336Z,7.30
2024-01-26T03:05:32.612Z,9.90
2024-01-26T03:08:00.990Z,5.20
2024-01-26T03:10:30.148Z,4.20
2024-01-26T03:12:58.497Z,8.40
2024-01-26T03:15:27.308Z,7.40
2024-01-26T03:17:55.839Z,4.70
2024-01-26T03:20:24.898Z,6.30
2024-01-26T03:22:53.289Z,7.10
2024-01-26T03:25:21.489Z,7.20
2024-01-26T03:28:28.472Z,6.70
2024-01-26T03:31:10.501Z,6.80
2024-01-26T03:33:38.904Z,4.40
2024-01-26T03:36:11.617Z,4.80
2024-01-26T03:38:41.830Z,4.80
2024-01-26T03:41:10.162Z,4.00
2024-01-26T03:43:38.436Z,7.70
2024-01-26T03:46:09.555Z,7.80
2024-01-26T03:48:38.872Z,4.90
2024-01-26T03:51:07.529Z,5.00
2024-01-26T03:53:36.176Z,6.30
2024-01-26T03:56:05.277Z,6.60
2024-01-26T03:58:33.328Z,4.20
2024-01-26T04:01:01.780Z,5.90
2024-01-26T04:03:30.432Z,4.10
2024-01-26T04:05:59.343Z,4.10
2024-01-26T04:08:27.863Z,3.70
2024-01-26T04:10:56.495Z,3.80
2024-01-26T04:13:24.892Z,5.10
2024-01-26T04:15:53.122Z,3.60
2024-01-26T04:18:21.619Z,7.50
2024-01-26T04:20:50.236Z,4.00
2024-01-26T04:23:18.626Z,3.80
2024-01-26T04:25:46.996Z,3.30
2024-01-26T04:28:15.355Z,4.10
2024-01-26T04:30:44.844Z,3.80
2024-01-26T04:33:13.446Z,4.30
2024-01-26T04:35:41.925Z,4.60
2024-01-26T04:38:10.578Z,5.20
2024-01-26T04:40:40.193Z,3.80
2024-01-26T04:43:09.701Z,3.50
2024-01-26T04:45:37.873Z,8.00
2024-01-26T04:48:07.160Z,3.50
2024-01-26T04:50:35.399Z,4.00
2024-01-26T04:53:03.964Z,3.30
2024-01-26T04:55:32.255Z,3.60
2024-01-26T04:58:00.665Z,3.60
2024-01-26T05:00:29.088Z,2.50
2024-01-26T05:02:57.336Z,4.50
2024-01-26T05:05:26.176Z,3.80
2024-01-26T05:07:54.508Z,4.70
2024-01-26T05:10:22.691Z,3.90
2024-01-26T05:12:51.189Z,4.10
2024-01-26T05:15:19.640Z,5.60
2024-01-26T05:17:49.500Z,3.50
2024-01-26T05:20:17.875Z,5.30
2024-01-26T05:22:46.702Z,6.10
2024-01-26T05:25:15.271Z,4.00
2024-01-26T05:27:43.407Z,4.70
2024-01-26T05:30:12.342Z,3.70
2024-01-26T05:32:41.354Z,3.60
2024-01-26T05:52:01.487Z,4.00
2024-01-26T05:54:29.626Z,5.20
2024-01-26T05:56:58.265Z,5.70
2024-01-26T05:59:26.561Z,4.80
2024-01-26T06:01:54.802Z,4.40
2024-01-26T06:04:23.802Z,5.00
2024-01-26T06:06:52.840Z,3.80
2024-01-26T06:09:21.644Z,4.70
2024-01-26T06:11:50.868Z,5.00
2024-01-26T06:14:21.618Z,3.70
2024-01-26T06:16:52.556Z,3.70
2024-01-26T06:19:22.378Z,3.30
2024-01-26T06:24:19.304Z,4.20
2024-01-26T06:26:47.794Z,4.30
2024-01-26T06:29:16.179Z,3.90
2024-01-26T06:31:44.450Z,3.70
2024-01-26T06:34:12.943Z,3.80
2024-01-26T06:36:42.666Z,4.10
2024-01-26T06:39:11.465Z,3.60
2024-01-26T06:41:43.808Z,3.60
2024-01-26T06:44:15.146Z,5.70
2024-01-26T06:46:43.477Z,3.10
2024-01-26T06:49:12.316Z,3.30
2024-01-26T06:51:40.757Z,3.40
2024-01-26T06:54:08.946Z,4.10
2024-01-26T06:56:37.309Z,3.60
2024-01-26T06:59:05.617Z,3.90
2024-01-26T07:01:33.749Z,4.00
2024-01-26T07:04:01.911Z,2.80
2024-01-26T07:06:30.434Z,2.90
2024-01-26T07:08:59.025Z,3.00
2024-01-26T07:11:27.443Z,4.00
2024-01-26T07:13:55.564Z,2.40
2024-01-26T07:16:23.646Z,3.10
2024-01-26T07:18:52.159Z,2.90
2024-01-26T07:21:22.241Z,3.00
2024-01-26T07:23:51.285Z,3.10
2024-01-26T07:26:20.623Z,3.50
2024-01-26T07:31:17.664Z,3.30
2024-01-26T07:33:46.303Z,3.00
2024-01-26T07:36:14.814Z,3.20
2024-01-26T07:38:43.373Z,3.20
2024-01-26T07:41:11.721Z,3.40
2024-01-26T07:43:39.930Z,3.00
2024-01-26T07:46:08.194Z,2.80
2024-01-26T07:48:36.856Z,2.40
2024-01-26T07:51:05.607Z,2.90
2024-01-26T07:53:33.914Z,1.90
2024-01-26T07:56:04.706Z,2.30
2024-01-26T07:58:34.504Z,3.10
2024-01-26T08:01:03.214Z,2.70
2024-01-26T08:03:33.000Z,2.30
2024-01-26T08:06:01.715Z,2.80
2024-01-26T08:10:59.006Z,3.30
2024-01-26T08:13:27.435Z,2.70
2024-01-26T08:15:57.190Z,2.60
2024-01-26T08:18:26.013Z,3.00
2024-01-26T08:20:54.701Z,3.10
2024-01-26T08:23:23.608Z,3.00
2024-01-26T08:25:52.110Z,2.80
2024-01-26T08:28:22.221Z,3.00
2024-01-26T08:30:50.712Z,2.50
2024-01-26T08:33:19.286Z,3.00
2024-01-26T08:35:48.269Z,7.00
2024-01-26T08:38:16.927Z,3.40
2024-01-26T08:40:45.695Z,2.10
2024-01-26T08:43:14.045Z,1.70
2024-01-26T08:45:42.271Z,2.60
2024-01-26T08:48:10.793Z,3.00
2024-01-26T08:50:40.276Z,2.20
2024-01-26T08:53:09.050Z,2.20
2024-01-26T08:55:37.571Z,2.70
2024-01-26T08:58:06.342Z,2.60
2024-01-26T09:00:35.643Z,2.50
2024-01-26T09:03:04.456Z,2.90
2024-01-26T09:05:33.040Z,4.00
2024-01-26T09:08:01.407Z,2.20
2024-01-26T09:10:29.768Z,8.50
2024-01-26T09:12:58.286Z,3.10
2024-01-26T09:15:26.548Z,2.60
2024-01-26T09:17:56.111Z,3.30
2024-01-26T09:22:53.071Z,2.30
2024-01-26T09:25:21.167Z,3.40
2024-01-26T09:27:49.929Z,5.10
2024-01-26T09:30:18.825Z,2.10
2024-01-26T09:35:16.326Z,3.70
2024-01-26T09:37:44.705Z,2.00
2024-01-26T09:40:14.216Z,3.50
2024-01-26T09:42:42.938Z,1.80
2024-01-26T09:45:13.382Z,3.30
2024-01-26T09:47:43.314Z,1.90
2024-01-26T09:50:14.871Z,3.80
2024-01-26T09:52:43.906Z,6.40
2024-01-26T09:55:13.425Z,1.90
2024-01-26T09:57:45.069Z,4.00
2024-01-26T10:00:14.924Z,2.90
2024-01-26T10:02:43.926Z,2.60
2024-01-26T10:05:14.365Z,2.70
2024-01-26T10:07:42.538Z,1.60
2024-01-26T10:10:11.730Z,2.10
2024-01-26T10:15:11.778Z,2.00
2024-01-26T10:17:40.468Z,2.10
2024-01-26T10:20:16.885Z,2.20
2024-01-26T10:22:46.931Z,2.50
2024-01-26T10:25:15.814Z,2.30
2024-01-26T10:27:44.057Z,2.00
2024-01-26T10:30:15.401Z,1.70
2024-01-26T10:32:45.965Z,3.80
2024-01-26T10:35:18.237Z,1.90
2024-01-26T10:37:47.926Z,1.80
2024-01-26T10:40:18.088Z,3.40
2024-01-26T10:42:48.384Z,2.60
2024-01-26T10:45:17.479Z,6.20
2024-01-26T10:47:49.063Z,3.70
2024-01-26T10:50:21.568Z,2.60
2024-01-26T10:52:51.500Z,2.50
2024-01-26T10:55:20.796Z,2.30
2024-01-26T10:57:49.103Z,2.30
2024-01-26T11:00:18.552Z,2.70
2024-01-26T11:02:47.206Z,10.10
2024-01-26T11:05:16.000Z,2.80
2024-01-26T11:07:46.321Z,2.30
2024-01-26T11:10:30.257Z,3.30
2024-01-26T11:13:06.916Z,3.30
2024-01-26T11:15:38.088Z,1.90
2024-01-26T11:18:06.786Z,5.20
2024-01-26T11:20:37.514Z,2.60
2024-01-26T11:23:08.172Z,3.70
2024-01-26T11:25:38.241Z,2.90
2024-01-26T11:28:08.631Z,2.70
2024-01-26T11:30:38.556Z,2.50
2024-01-26T11:33:22.998Z,3.30
2024-01-26T11:36:02.902Z,2.20
2024-01-26T11:38:32.035Z,7.70
2024-01-26T11:41:00.321Z,4.70
2024-01-26T11:43:30.232Z,2.40
2024-01-26T11:45:58.912Z,1.90
2024-01-26T11:48:27.731Z,2.10
2024-01-26T11:50:57.821Z,2.30
2024-01-26T11:53:26.896Z,2.60
2024-01-26T11:55:59.936Z,2.50
2024-01-26T11:58:28.906Z,2.30
2024-01-26T12:01:01.627Z,2.50
2024-01-26T12:03:30.301Z,7.40
2024-01-26T12:05:59.943Z,4.20
2024-01-26T12:08:29.056Z,3.20
2024-01-26T12:10:58.667Z,3.10
2024-01-26T12:13:27.917Z,6.70
2024-01-26T12:15:56.496Z,5.70
2024-01-26T12:18:25.300Z,3.00
2024-01-26T12:20:54.210Z,4.30
2024-01-26T12:23:22.802Z,5.20
2024-01-26T12:25:52.984Z,3.10
2024-01-26T12:28:22.140Z,5.60
2024-01-26T12:30:52.123Z,2.30
2024-01-26T12:33:21.646Z,2.70
2024-01-26T12:35:53.158Z,3.60
2024-01-26T12:38:21.628Z,2.70
2024-01-26T12:40:50.583Z,2.80
2024-01-26T12:43:19.150Z,14.90
2024-01-26T12:45:47.648Z,3.90
2024-01-26T12:48:15.893Z,5.10
2024-01-26T12:50:44.510Z,3.70
2024-01-26T12:53:12.960Z,4.10
2024-01-26T12:55:41.451Z,3.60
2024-01-26T12:58:10.579Z,3.00
2024-01-26T13:00:38.866Z,6.90
2024-01-26T13:03:07.511Z,3.50
2024-01-26T13:05:36.915Z,5.00
2024-01-26T13:08:05.688Z,4.60
2024-01-26T13:10:34.669Z,3.90
2024-01-26T13:13:02.964Z,3.60
2024-01-26T13:15:31.718Z,3.30
2024-01-26T13:18:00.520Z,5.80
2024-01-26T13:20:30.319Z,3.80
2024-01-26T13:22:59.273Z,3.40
2024-01-26T13:25:28.020Z,3.30
2024-01-26T13:28:02.438Z,5.00
2024-01-26T13:30:33.546Z,4.30
2024-01-26T13:33:04.342Z,7.50
2024-01-26T13:35:32.643Z,3.90
2024-01-26T13:38:00.971Z,3.90
2024-01-26T13:40:29.465Z,3.50
2024-01-26T13:42:58.318Z,4.40
2024-01-26T13:45:26.790Z,4.50
2024-01-26T13:48:00.879Z,6.50
2024-01-26T13:50:33.261Z,3.80
2024-01-26T13:55:30.855Z,4.00
2024-01-26T13:57:59.572Z,3.40
2024-01-26T14:00:28.074Z,4.60
2024-01-26T14:02:56.719Z,4.60
2024-01-26T14:07:54.398Z,3.50
2024-01-26T14:10:22.816Z,4.00
2024-01-26T14:12:51.350Z,3.50
2024-01-26T14:15:21.355Z,4.00
2024-01-26T14:17:49.875Z,4.80
2024-01-26T14:20:22.752Z,6.60
2024-01-26T14:22:52.887Z,5.80
2024-01-26T14:25:25.234Z,5.30
2024-01-26T14:27:54.700Z,6.00
2024-01-26T14:30:24.916Z,4.20
2024-01-26T14:32:53.681Z,6.80
2024-01-26T14:35:22.755Z,7.60
2024-01-26T14:37:51.154Z,3.90
2024-01-26T14:40:20.092Z,5.30
2024-01-26T14:42:48.882Z,7.00
2024-01-26T14:45:18.374Z,4.80
2024-01-26T14:47:47.798Z,7.90
2024-01-26T14:50:17.347Z,4.50
2024-01-26T14:52:45.869Z,6.40
2024-01-26T14:55:14.991Z,5.30
2024-01-26T14:57:47.248Z,6.50
2024-01-26T15:00:17.517Z,7.00
2024-01-26T15:02:46.208Z,7.90
2024-01-26T15:05:14.894Z,8.80
2024-01-26T15:07:48.092Z,13.70
2024-01-26T15:10:19.133Z,6.40
2024-01-26T15:12:47.822Z,9.40
2024-01-26T15:15:18.601Z,8.50
2024-01-26T15:17:49.753Z,20.30
2024-01-26T15:20:18.660Z,8.50
2024-01-26T15:22:50.567Z,11.30
2024-01-26T15:25:19.196Z,11.50
2024-01-26T15:27:47.439Z,9.60
2024-01-26T15:30:17.994Z,7.80
2024-01-26T15:32:47.406Z,15.10
2024-01-26T15:35:16.163Z,6.10
2024-01-26T15:37:44.637Z,15.00
2024-01-26T15:40:16.899Z,9.20
2024-01-26T15:42:45.829Z,7.50
2024-01-26T15:45:14.622Z,8.10
2024-01-26T15:47:44.099Z,11.00
2024-01-26T15:50:14.298Z,13.90
2024-01-26T15:52:46.424Z,13.60
2024-01-26T15:55:16.630Z,12.10
2024-01-26T15:57:45.078Z,13.60
2024-01-26T16:00:15.551Z,14.60
2024-01-26T16:02:44.830Z,11.40
2024-01-26T16:05:13.728Z,15.00
2024-01-26T16:07:42.332Z,14.10
2024-01-26T16:10:11.277Z,20.60
2024-01-26T16:12:39.766Z,11.30
2024-01-26T16:15:10.631Z,10.20
2024-01-26T16:17:39.660Z,10.80
2024-01-26T16:20:11.933Z,12.20
2024-01-26T16:22:40.144Z,16.50
2024-01-26T16:25:08.980Z,11.30
2024-01-26T16:27:37.213Z,16.30
2024-01-26T16:30:07.151Z,9.30
2024-01-26T16:32:36.017Z,16.60
2024-01-26T16:35:05.436Z,11.30
2024-01-26T16:40:05.479Z,23.10
2024-01-26T16:42:34.364Z,26.80
2024-01-26T16:47:31.716Z,14.70
2024-01-26T16:49:59.915Z,9.00
2024-01-26T16:52:28.697Z,9.20
2024-01-26T16:54:59.611Z,8.90
2024-01-26T16:57:28.102Z,8.50
2024-01-26T16:59:56.352Z,9.40
2024-01-26T17:02:26.140Z,11.80
2024-01-26T17:04:55.098Z,12.40
2024-01-26T17:07:23.686Z,8.40
2024-01-26T17:09:51.864Z,8.10
2024-01-26T17:12:20.501Z,7.40
2024-01-26T17:14:48.685Z,6.80
2024-01-26T17:17:18.667Z,7.10
2024-01-26T17:19:47.167Z,8.40
2024-01-26T17:22:15.303Z,13.30
2024-01-26T17:24:43.554Z,11.40
2024-01-26T17:27:11.824Z,8.30
2024-01-26T17:29:40.180Z,11.60
2024-01-26T17:32:11.854Z,10.90
2024-01-26T17:34:40.209Z,9.30
2024-01-26T17:37:08.489Z,10.60
2024-01-26T17:39:47.929Z,15.10
2024-01-26T17:42:24.991Z,15.10
2024-01-26T17:44:53.573Z,21.00
2024-01-26T17:47:22.419Z,11.40
2024-01-26T17:49:50.925Z,11.70
2024-01-26T17:52:19.276Z,14.70
2024-01-26T17:54:47.405Z,12.50
2024-01-26T17:57:15.815Z,12.40
2024-01-26T17:59:45.171Z,12.20
2024-01-26T18:02:14.166Z,20.40
2024-01-26T18:04:43.818Z,18.50
2024-01-26T18:09:40.607Z,51.60
2024-01-26T18:12:09.580Z,68.70
2024-01-26T18:14:37.778Z,54.30
2024-01-26T18:17:07.276Z,58.60
2024-01-26T18:19:35.808Z,40.30
2024-01-26T18:22:04.983Z,34.50
2024-01-26T18:24:35.972Z,39.90
2024-01-26T18:27:05.150Z,35.30
2024-01-26T18:29:33.704Z,17.90
2024-01-26T18:32:01.969Z,21.10
2024-01-26T18:34:30.914Z,23.40
2024-01-26T18:36:59.430Z,22.50
2024-01-26T18:39:27.734Z,17.60
2024-01-26T18:41:55.934Z,21.40
2024-01-26T18:44:24.233Z,28.90
2024-01-26T18:46:52.718Z,22.70
2024-01-26T18:49:20.998Z,23.30
2024-01-26T18:51:49.632Z,21.50
2024-01-26T18:54:17.872Z,19.70
2024-01-26T18:56:46.412Z,18.10
2024-01-26T18:59:17.726Z,17.30
2024-01-26T19:01:46.778Z,16.50
2024-01-26T19:04:16.013Z,17.10
2024-01-26T19:06:44.884Z,22.70
2024-01-26T19:09:14.808Z,19.10
2024-01-26T19:11:43.687Z,21.20
2024-01-26T19:14:12.713Z,22.00
2024-01-26T19:16:44.400Z,20.80
2024-01-26T19:19:14.562Z,23.80
2024-01-26T19:21:45.029Z,26.50
2024-01-26T19:24:14.123Z,22.50
2024-01-26T19:29:11.489Z,23.80
2024-01-26T19:31:39.836Z,30.40
2024-01-26T19:34:08.455Z,32.90
2024-01-26T19:36:37.178Z,41.20
2024-01-26T19:39:07.984Z,32.60
2024-01-26T19:41:36.359Z,36.50
2024-01-26T19:44:05.540Z,40.10
2024-01-26T19:46:34.167Z,40.30
2024-01-26T19:49:02.464Z,53.80
2024-01-26T19:51:30.965Z,45.20
2024-01-26T19:53:59.352Z,59.70
2024-01-26T19:56:33.231Z,58.00
2024-01-26T19:59:05.153Z,55.80
2024-01-26T20:01:35.798Z,62.10
2024-01-26T20:04:04.371Z,59.40
2024-01-26T20:06:33.052Z,72.20
2024-01-26T20:09:02.378Z,61.30
2024-01-26T20:11:30.921Z,68.40
2024-01-26T20:13:59.331Z,54.70
2024-01-26T20:16:29.715Z,44.90
2024-01-26T20:18:58.027Z,42.60
2024-01-26T20:21:26.547Z,45.20
2024-01-26T20:23:55.327Z,51.40
2024-01-26T20:26:24.490Z,59.10
2024-01-26T20:28:54.509Z,65.20
2024-01-26T20:31:23.803Z,48.80
2024-01-26T20:33:52.692Z,64.60
2024-01-26T20:36:21.670Z,51.20
2024-01-26T20:38:51.433Z,57.70
2024-01-26T20:41:20.009Z,65.60
2024-01-26T20:43:49.981Z,60.30
2024-01-26T20:46:18.130Z,67.40
2024-01-26T20:48:47.070Z,58.00
2024-01-26T20:51:15.474Z,60.80
2024-01-26T20:53:44.215Z,63.70
2024-01-26T20:56:12.554Z,62.70
2024-01-26T20:58:40.867Z,51.90
2024-01-26T21:01:09.282Z,49.70
2024-01-26T21:03:37.487Z,43.80
2024-01-26T21:06:06.230Z,49.10
2024-01-26T21:08:34.996Z,44.60
2024-01-26T21:11:04.570Z,43.00
2024-01-26T21:13:35.679Z,42.80
2024-01-26T21:16:04.197Z,39.40
2024-01-26T21:18:32.645Z,47.40
2024-01-26T21:21:01.322Z,41.20
2024-01-26T21:23:29.491Z,42.50
2024-01-26T21:25:58.379Z,40.20
2024-01-26T21:28:26.638Z,37.20
2024-01-26T21:30:54.843Z,40.00
2024-01-26T21:33:23.233Z,36.80
2024-01-26T21:35:55.254Z,35.80
2024-01-26T21:38:24.902Z,41.60
2024-01-26T21:40:53.824Z,36.90
2024-01-26T21:45:53.713Z,43.90
2024-01-26T21:48:24.840Z,38.50
2024-01-26T21:50:54.661Z,37.20
2024-01-26T21:55:52.150Z,39.90
2024-01-26T21:58:20.535Z,43.80
2024-01-26T22:00:49.049Z,45.80
2024-01-26T22:03:17.908Z,46.00
2024-01-26T22:05:46.511Z,42.90
2024-01-26T22:08:15.016Z,43.40
2024-01-26T22:10:43.551Z,53.80
2024-01-26T22:13:12.434Z,55.20
2024-01-26T22:15:40.867Z,56.70
2024-01-26T22:18:09.620Z,49.10
2024-01-26T22:20:37.964Z,62.50
2024-01-26T22:23:06.105Z,48.70
2024-01-26T22:25:34.197Z,47.30
2024-01-26T22:28:02.696Z,52.20
2024-01-26T22:30:31.312Z,57.50
2024-01-26T22:32:59.742Z,59.50
2024-01-26T22:35:28.713Z,53.20
2024-01-26T22:37:57.035Z,49.20
2024-01-26T22:40:25.666Z,54.40
2024-01-26T22:42:54.167Z,53.40
2024-01-26T22:45:23.466Z,54.60
2024-01-26T22:47:52.479Z,64.20
2024-01-26T22:50:21.168Z,54.60
2024-01-26T22:52:49.857Z,57.60
2024-01-26T22:55:19.551Z,55.90
2024-01-26T22:57:48.878Z,61.60
2024-01-26T23:00:28.366Z,60.50
2024-01-26T23:02:58.017Z,62.80
2024-01-26T23:05:28.969Z,66.50
2024-01-26T23:07:58.073Z,64.80
2024-01-26T23:10:26.703Z,61.70
2024-01-26T23:12:57.055Z,69.00
2024-01-26T23:15:26.907Z,70.90
2024-01-26T23:17:55.298Z,70.50
2024-01-26T23:20:23.762Z,56.30
2024-01-26T23:22:52.055Z,64.40
2024-01-26T23:25:20.977Z,61.10
2024-01-26T23:27:49.460Z,64.80
2024-01-26T23:30:17.873Z,62.10
2024-01-26T23:32:46.347Z,59.70
2024-01-26T23:35:15.170Z,52.40
2024-01-26T23:37:43.608Z,56.60
2024-01-26T23:40:12.644Z,57.40
2024-01-26T23:42:40.944Z,50.10
2024-01-26T23:45:10.020Z,50.00
2024-01-26T23:47:38.604Z,46.60
2024-01-26T23:50:07.277Z,48.20
2024-01-26T23:52:35.456Z,43.10
2024-01-26T23:55:04.729Z,41.40
2024-01-26T23:57:32.850Z,43.10
